Time;durP1;ratioP1;P1;durP2;ratioP2;P2;SDS_P1;SDS_P2;PMS_P1;PMS_P2;Temp;Humidity;BMP_temperature;BMP_pressure;BME280_temperature;BME280_humidity;BME280_pressure;Samples;Min_cycle;Max_cycle;Signal;HPM_P1;HPM_P2
2022/05/01 00:00:16;;;;;;;12.35;9.95;;;;;;;6.90;98.21;101576.25;699401;28;1078;-43
2022/05/01 00:00:36;;;;;;;12.83;10.00;;;;;;;6.91;98.33;101574.50;698853;28;1466;-45
2022/05/01 00:00:57;;;;;;;13.60;10.20;;;;;;;6.90;97.30;101572.78;699795;27;4600;-44
2022/05/01 00:01:18;;;;;;;13.10;9.77;;;;;;;6.89;97.20;101571.88;699044;28;1058;-44
2022/05/01 00:01:39;;;;;;;12.73;10.02;;;;;;;6.91;97.64;101574.50;699856;28;1066;-44
2022/05/01 00:01:59;;;;;;;13.67;10.17;;;;;;;6.88;98.54;101574.44;699380;28;1513;-44
2022/05/01 00:02:19;;;;;;;12.75;10.07;;;;;;;6.81;97.96;101574.28;695408;28;1194;-44
2022/05/01 00:02:40;;;;;;;12.70;10.20;;;;;;;6.78;98.65;101579.41;692890;28;1150;-43
2022/05/01 00:03:00;;;;;;;13.27;10.57;;;;;;;6.78;98.27;101574.22;694066;28;1531;-43
2022/05/01 00:03:36;;;;;;;13.38;10.65;;;;;;;6.76;98.50;101581.09;693419;28;1229;-43
2022/05/01 00:03:56;;;;;;;13.75;10.45;;;;;;;6.78;98.24;101576.81;695850;28;4334;-44
2022/05/01 00:04:16;;;;;;;12.60;10.63;;;;;;;6.79;98.70;101570.75;698960;28;1050;-43
2022/05/01 00:04:37;;;;;;;14.50;11.10;;;;;;;6.81;98.43;101571.69;699325;28;1123;-44
2022/05/01 00:05:01;;;;;;;13.45;10.80;;;;;;;6.77;98.80;101577.66;698987;28;953;-44
2022/05/01 00:05:21;;;;;;;13.93;10.38;;;;;;;6.70;99.42;101575.75;696957;28;1114;-44
2022/05/01 00:05:42;;;;;;;13.70;10.50;;;;;;;6.66;99.08;101573.91;694544;28;1110;-44
2022/05/01 00:06:05;;;;;;;13.40;10.68;;;;;;;6.66;99.15;101573.91;696442;28;1031;-44
2022/05/01 00:06:26;;;;;;;12.45;10.18;;;;;;;6.68;98.77;101577.41;694908;28;1075;-43
2022/05/01 00:06:46;;;;;;;12.53;10.20;;;;;;;6.75;98.30;101574.13;694928;28;1325;-45
2022/05/01 00:07:10;;;;;;;12.43;10.20;;;;;;;6.82;97.54;101572.56;695966;28;5329;-44
2022/05/01 00:07:32;;;;;;;12.70;9.75;;;;;;;6.89;97.32;101574.47;699618;28;1170;-45
2022/05/01 00:07:52;;;;;;;12.88;10.00;;;;;;;6.95;97.00;101571.13;700063;28;982;-45
2022/05/01 00:08:14;;;;;;;13.73;10.02;;;;;;;6.95;96.71;101571.13;699758;28;1144;-45
2022/05/01 00:08:36;;;;;;;13.02;9.90;;;;;;;6.98;96.86;101577.31;700389;28;1058;-44
2022/05/01 00:08:56;;;;;;;11.85;9.55;;;;;;;6.99;96.37;101570.38;698707;28;1319;-44
2022/05/01 00:09:17;;;;;;;12.23;9.60;;;;;;;7.03;96.86;101577.41;700228;28;1100;-44
2022/05/01 00:09:38;;;;;;;13.00;10.30;;;;;;;7.03;97.42;101569.59;698430;28;1185;-44
2022/05/01 00:09:59;;;;;;;12.93;10.35;;;;;;;7.00;97.13;101582.53;698832;27;4642;-43
2022/05/01 00:10:19;;;;;;;13.85;10.30;;;;;;;6.91;97.49;101575.41;699652;28;1355;-45
2022/05/01 00:10:40;;;;;;;12.87;10.13;;;;;;;6.82;98.25;101575.16;700084;28;1216;-43
2022/05/01 00:11:00;;;;;;;12.13;10.10;;;;;;;6.78;97.93;101576.81;698879;28;1207;-44
2022/05/01 00:11:21;;;;;;;12.73;10.17;;;;;;;6.73;98.55;101570.63;700020;28;1666;-44
2022/05/01 00:11:42;;;;;;;13.53;10.30;;;;;;;6.73;98.76;101574.91;699339;28;1240;-44
2022/05/01 00:12:03;;;;;;;12.57;10.18;;;;;;;6.73;97.20;101575.81;699776;28;1058;-43
2022/05/01 00:12:23;;;;;;;12.57;10.27;;;;;;;6.74;97.81;101575.00;697908;28;1134;-44
2022/05/01 00:12:44;;;;;;;12.98;10.18;;;;;;;6.73;98.06;101582.72;698423;28;1183;-44
2022/05/01 00:13:04;;;;;;;12.60;10.23;;;;;;;6.75;97.51;101579.31;698552;27;5292;-44
2022/05/01 00:13:25;;;;;;;12.60;10.48;;;;;;;6.76;98.71;101572.44;698193;28;2835;-44
2022/05/01 00:13:46;;;;;;;13.02;10.63;;;;;;;6.73;99.35;101577.50;696939;28;2219;-44
2022/05/01 00:14:08;;;;;;;13.23;10.43;;;;;;;6.68;98.86;101581.75;698090;28;1987;-44
2022/05/01 00:14:29;;;;;;;13.02;10.30;;;;;;;6.68;98.24;101577.41;699551;28;1097;-44
2022/05/01 00:14:50;;;;;;;13.40;10.35;;;;;;;6.72;98.24;101574.06;699903;28;1292;-44
2022/05/01 00:15:10;;;;;;;12.63;10.20;;;;;;;6.74;98.18;101572.38;699329;28;1217;-44
2022/05/01 00:15:31;;;;;;;14.15;10.75;;;;;;;6.69;98.78;101576.59;697450;28;1260;-44
2022/05/01 00:15:51;;;;;;;13.83;10.33;;;;;;;6.65;98.55;101578.22;697298;28;1138;-43
2022/05/01 00:16:12;;;;;;;12.93;10.00;;;;;;;6.62;98.66;101572.94;697822;28;4311;-44
2022/05/01 00:16:33;;;;;;;13.20;10.10;;;;;;;6.61;98.87;101578.97;698384;27;4019;-45
2022/05/01 00:16:53;;;;;;;13.23;10.07;;;;;;;6.62;99.14;101572.06;699202;28;960;-45
2022/05/01 00:17:14;;;;;;;14.33;10.70;;;;;;;6.58;99.50;101571.09;700378;28;1140;-43
2022/05/01 00:17:34;;;;;;;14.02;10.43;;;;;;;6.58;99.71;101573.69;699611;28;1136;-46
2022/05/01 00:17:54;;;;;;;14.63;10.53;;;;;;;6.59;99.65;101577.16;698198;28;1209;-44
2022/05/01 00:18:15;;;;;;;14.80;10.67;;;;;;;6.59;99.28;101572.88;699345;28;1354;-44
2022/05/01 00:18:36;;;;;;;15.27;10.80;;;;;;;6.52;99.86;101573.56;700399;28;1174;-43
2022/05/01 00:18:56;;;;;;;13.40;10.68;;;;;;;6.48;100.00;101574.31;699069;27;4419;-43
2022/05/01 00:19:17;;;;;;;13.43;10.53;;;;;;;6.46;99.93;101576.84;698740;28;1055;-44
2022/05/01 00:19:41;;;;;;;13.07;10.40;;;;;;;6.41;100.00;101572.34;697838;28;1105;-44
2022/05/01 00:20:02;;;;;;;13.20;10.18;;;;;;;6.37;100.00;101570.50;696797;28;1157;-44
2022/05/01 00:20:23;;;;;;;13.47;10.27;;;;;;;6.35;99.96;101565.28;697991;28;1059;-43
2022/05/01 00:20:43;;;;;;;12.70;10.32;;;;;;;6.41;98.93;101567.16;696633;28;2013;-43
2022/05/01 00:21:04;;;;;;;13.20;10.20;;;;;;;6.47;99.74;101573.41;696718;28;1073;-44
2022/05/01 00:21:24;;;;;;;13.88;10.30;;;;;;;6.50;100.00;101566.56;698325;28;1149;-44
2022/05/01 00:21:45;;;;;;;13.47;10.03;;;;;;;6.48;100.00;101569.97;700007;28;1238;-45
2022/05/01 00:22:06;;;;;;;15.32;10.30;;;;;;;6.48;100.00;101569.97;699467;28;4248;-43
2022/05/01 00:22:27;;;;;;;14.60;10.33;;;;;;;6.47;100.00;101578.59;699658;28;1132;-44
2022/05/01 00:22:47;;;;;;;13.95;10.43;;;;;;;6.42;100.00;101568.94;698485;28;1341;-45
2022/05/01 00:23:08;;;;;;;13.03;10.07;;;;;;;6.39;100.00;101571.44;694563;28;1282;-44
2022/05/01 00:23:29;;;;;;;13.23;10.00;;;;;;;6.39;100.00;101569.72;696260;28;1129;-44
2022/05/01 00:23:49;;;;;;;13.75;10.40;;;;;;;6.42;100.00;101574.13;696617;28;1086;-44
2022/05/01 00:24:09;;;;;;;11.93;9.93;;;;;;;6.51;100.00;101563.09;700197;28;1321;-45
2022/05/01 00:24:30;;;;;;;12.05;9.75;;;;;;;6.56;98.96;101567.59;699242;28;1022;-43
2022/05/01 00:24:51;;;;;;;12.38;9.80;;;;;;;6.58;98.14;101565.03;697734;28;1299;-44
2022/05/01 00:25:13;;;;;;;13.40;9.90;;;;;;;6.57;98.56;101563.28;698239;28;4308;-44
2022/05/01 00:25:33;;;;;;;12.15;9.65;;;;;;;6.57;98.44;101566.72;698441;28;1076;-44
2022/05/01 00:25:54;;;;;;;12.38;9.75;;;;;;;6.56;97.97;101565.00;700403;28;948;-45
2022/05/01 00:26:14;;;;;;;12.77;9.90;;;;;;;6.58;98.21;101567.63;698220;28;1514;-45
2022/05/01 00:26:35;;;;;;;11.30;9.50;;;;;;;6.57;100.00;101568.47;700894;28;1215;-44
2022/05/01 00:26:56;;;;;;;12.02;9.57;;;;;;;6.51;100.00;101566.59;699617;28;978;-43
2022/05/01 00:27:17;;;;;;;12.67;9.80;;;;;;;6.47;99.99;101565.63;698135;28;1203;-45
2022/05/01 00:27:37;;;;;;;12.48;10.00;;;;;;;6.48;99.08;101566.50;696367;28;1260;-44
2022/05/01 00:27:58;;;;;;;12.10;10.07;;;;;;;6.50;99.20;101561.34;692882;28;4474;-44
2022/05/01 00:28:18;;;;;;;12.27;10.15;;;;;;;6.53;100.00;101564.03;690660;28;1208;-43
2022/05/01 00:28:39;;;;;;;13.80;10.20;;;;;;;6.52;100.00;101554.47;692620;28;1520;-44
2022/05/01 00:29:05;;;;;;;13.73;10.23;;;;;;;6.55;99.90;101564.94;694332;28;1022;-44
2022/05/01 00:29:26;;;;;;;12.30;9.63;;;;;;;6.54;99.19;101560.59;695399;28;1184;-45
2022/05/01 00:29:46;;;;;;;11.03;8.93;;;;;;;6.57;99.05;101563.28;698737;28;1358;-44
2022/05/01 00:30:07;;;;;;;11.93;9.50;;;;;;;6.55;99.94;101565.81;699939;28;1257;-44
2022/05/01 00:30:27;;;;;;;13.13;10.10;;;;;;;6.52;100.00;101563.16;699799;28;1384;-44
2022/05/01 00:30:48;;;;;;;13.45;10.45;;;;;;;6.53;100.00;101571.81;699143;28;967;-44
2022/05/01 00:31:09;;;;;;;12.73;10.30;;;;;;;6.52;100.00;101567.44;699618;27;4315;-46
2022/05/01 00:31:29;;;;;;;13.65;10.30;;;;;;;6.47;100.00;101563.00;698294;27;1239;-44
2022/05/01 00:31:50;;;;;;;14.10;10.57;;;;;;;6.46;99.99;101565.56;699390;28;1026;-44
2022/05/01 00:32:10;;;;;;;13.88;10.10;;;;;;;6.48;99.53;101563.91;700553;28;1095;-46
2022/05/01 00:36:25;;;;;;;12.97;9.60;;;;;;;6.51;99.16;101565.69;699528;28;1355;-44
2022/05/01 00:36:26;;;;;;;12.70;10.10;;;;;;;6.54;99.33;101558.88;698872;28;1602;-43
2022/05/01 00:36:48;;;;;;;11.90;10.23;;;;;;;6.55;99.95;101559.72;699338;28;1253;-44
2022/05/01 00:37:08;;;;;;;13.75;9.68;;;;;;;6.58;99.27;101559.84;699278;27;5437;-45
2022/05/01 00:37:28;;;;;;;11.80;9.40;;;;;;;6.54;98.82;101556.28;699760;28;1400;-44
2022/05/01 00:37:50;;;;;;;11.80;9.57;;;;;;;6.56;99.08;101566.69;699500;28;1264;-45
2022/05/01 00:38:11;;;;;;;12.13;10.20;;;;;;;6.53;99.19;101557.09;701334;28;1177;-43
2022/05/01 00:38:31;;;;;;;13.00;9.90;;;;;;;6.54;98.85;101563.19;700520;28;1371;-44
2022/05/01 00:38:53;;;;;;;12.52;9.88;;;;;;;6.53;98.79;101559.69;700488;28;1082;-44
2022/05/01 00:39:14;;;;;;;11.93;9.63;;;;;;;6.46;99.62;101566.44;699289;28;1343;-45
2022/05/01 00:39:34;;;;;;;13.73;10.52;;;;;;;6.42;100.00;101556.81;699128;28;1411;-43
2022/05/01 00:39:55;;;;;;;14.30;10.13;;;;;;;6.40;100.00;101566.28;699778;28;917;-44
2022/05/01 00:40:15;;;;;;;12.95;9.93;;;;;;;6.42;99.21;101559.41;700145;28;4597;-43
2022/05/01 00:40:36;;;;;;;13.63;10.00;;;;;;;6.44;99.03;101562.06;698460;27;1165;-45
2022/05/01 00:40:58;;;;;;;13.00;10.17;;;;;;;6.45;99.32;101562.13;698474;28;1918;-45
2022/05/01 00:41:18;;;;;;;13.05;10.23;;;;;;;6.46;99.63;101560.38;698427;28;1069;-43
2022/05/01 00:41:40;;;;;;;12.77;10.10;;;;;;;6.47;100.00;101559.56;700228;28;1152;-44
2022/05/01 00:42:00;;;;;;;13.40;10.10;;;;;;;6.51;100.00;101553.59;699291;28;1141;-44
2022/05/01 00:42:20;;;;;;;12.80;10.40;;;;;;;6.51;100.00;101560.50;698629;28;1224;-44
2022/05/01 00:42:41;;;;;;;11.70;9.87;;;;;;;6.45;100.00;101558.63;698852;28;1455;-43
2022/05/01 00:43:03;;;;;;;12.60;10.33;;;;;;;6.41;100.00;101557.66;699334;27;4415;-44
2022/05/01 00:43:23;;;;;;;12.48;10.13;;;;;;;6.36;100.00;101559.25;699095;28;1050;-43
2022/05/01 00:44:05;;;;;;;13.60;10.17;;;;;;;6.39;100.00;101561.06;698891;28;1145;-46
2022/05/01 00:44:26;;;;;;;12.38;9.52;;;;;;;6.43;99.51;101560.31;698847;28;1201;-46
2022/05/01 00:44:46;;;;;;;11.87;9.73;;;;;;;6.47;99.79;101562.16;698296;28;1327;-45
2022/05/01 00:45:07;;;;;;;12.10;9.83;;;;;;;6.49;99.32;101557.84;698265;28;1144;-43
2022/05/01 00:45:27;;;;;;;13.05;10.48;;;;;;;6.45;99.92;101553.41;697283;28;883;-46
2022/05/01 00:45:48;;;;;;;12.80;10.02;;;;;;;6.46;99.24;101558.66;699886;28;1130;-45
2022/05/01 00:46:08;;;;;;;12.27;9.63;;;;;;;6.49;98.77;101560.44;698986;28;4295;-44
2022/05/01 00:46:36;;;;;;;13.20;9.50;;;;;;;6.45;99.68;101564.72;698466;28;1125;-46
2022/05/01 00:46:59;;;;;;;12.55;10.43;;;;;;;6.40;100.00;101557.63;699954;28;920;-44
2022/05/01 00:47:19;;;;;;;13.40;10.63;;;;;;;6.38;99.96;101560.16;699298;28;1054;-44
2022/05/01 00:47:40;;;;;;;12.10;9.97;;;;;;;6.39;99.18;101559.34;699746;28;1130;-45
2022/05/01 00:48:00;;;;;;;11.68;9.40;;;;;;;6.39;99.19;101561.94;698016;28;1089;-43
2022/05/01 00:48:21;;;;;;;12.03;9.37;;;;;;;6.40;98.63;101561.09;698458;28;1278;-44
2022/05/01 00:48:41;;;;;;;12.10;9.57;;;;;;;6.42;99.69;101559.41;697223;28;1395;-44
2022/05/01 00:49:04;;;;;;;13.03;9.87;;;;;;;6.43;99.42;101561.19;693305;28;4389;-43
2022/05/01 00:49:27;;;;;;;14.60;10.05;;;;;;;6.41;99.46;101557.66;691354;28;1122;-44
2022/05/01 00:49:47;;;;;;;12.20;9.60;;;;;;;6.40;99.41;101560.22;692229;28;1229;-45
2022/05/01 00:50:08;;;;;;;12.50;9.67;;;;;;;6.38;99.92;101556.69;695570;28;1090;-45
2022/05/01 00:50:29;;;;;;;12.57;10.20;;;;;;;6.39;99.55;101561.94;699098;28;1244;-44
2022/05/01 00:50:51;;;;;;;11.70;9.77;;;;;;;6.34;99.80;101550.56;696775;28;1023;-45
2022/05/01 00:51:11;;;;;;;12.13;10.15;;;;;;;6.29;99.06;101557.34;700581;28;1240;-43
2022/05/01 00:51:34;;;;;;;12.05;9.75;;;;;;;6.30;98.94;101559.09;699264;28;1291;-45
2022/05/01 00:52:11;;;;;;;13.02;9.70;;;;;;;6.36;99.03;101561.84;700380;28;1033;-44
2022/05/01 00:52:32;;;;;;;14.02;10.27;;;;;;;6.31;99.37;101547.84;698083;28;4859;-45
2022/05/01 00:52:52;;;;;;;14.10;10.40;;;;;;;6.29;99.80;101552.16;699974;28;1619;-44
2022/05/01 00:53:13;;;;;;;13.35;10.00;;;;;;;6.26;99.75;101557.25;699226;28;1140;-44
2022/05/01 00:53:33;;;;;;;12.02;9.68;;;;;;;6.27;98.74;101556.41;697397;28;1078;-44
2022/05/01 00:53:54;;;;;;;12.37;9.63;;;;;;;6.31;98.67;101550.47;700351;28;1903;-48
2022/05/01 00:54:21;;;;;;;12.15;9.73;;;;;;;6.31;99.89;101555.66;698925;28;1224;-43
2022/05/01 00:54:43;;;;;;;12.68;9.90;;;;;;;6.29;99.52;101560.81;698568;28;1099;-44
2022/05/01 00:55:04;;;;;;;12.73;10.05;;;;;;;6.32;99.63;101552.22;699843;27;4266;-44
2022/05/01 00:55:25;;;;;;;13.93;10.05;;;;;;;6.35;98.76;101546.22;698996;28;1070;-43
2022/05/01 00:55:46;;;;;;;13.55;10.43;;;;;;;6.35;98.81;101551.44;698213;28;1031;-44
2022/05/01 00:56:06;;;;;;;13.70;10.23;;;;;;;6.32;100.00;101552.22;699542;28;1100;-44
2022/05/01 00:56:30;;;;;;;13.13;9.63;;;;;;;6.32;100.00;101551.34;700010;28;1106;-43
2022/05/01 00:56:53;;;;;;;13.90;10.90;;;;;;;6.29;100.00;101552.16;698748;28;1221;-44
2022/05/01 00:57:16;;;;;;;13.07;9.85;;;;;;;6.25;100.00;101545.09;698809;28;1221;-45
2022/05/01 00:57:37;;;;;;;12.23;9.82;;;;;;;6.22;100.00;101553.69;699589;28;1303;-43
2022/05/01 00:57:57;;;;;;;12.35;9.75;;;;;;;6.22;100.00;101545.03;698561;27;4383;-43
2022/05/01 00:58:19;;;;;;;13.43;10.15;;;;;;;6.19;100.00;101553.63;697798;28;1022;-44
2022/05/01 00:58:40;;;;;;;12.90;10.48;;;;;;;6.14;100.00;101552.59;695870;28;1273;-44
2022/05/01 00:59:01;;;;;;;13.73;10.40;;;;;;;6.13;100.00;101551.72;695967;28;1079;-44
2022/05/01 00:59:21;;;;;;;12.33;9.90;;;;;;;6.16;99.55;101548.31;696115;28;1082;-43
2022/05/01 00:59:43;;;;;;;11.60;9.77;;;;;;;6.14;99.62;101553.47;696898;28;1058;-44
2022/05/01 01:00:04;;;;;;;12.10;9.88;;;;;;;6.10;100.00;101553.34;694406;28;1259;-45
2022/05/01 01:00:25;;;;;;;13.63;10.20;;;;;;;6.03;100.00;101554.03;697499;28;1229;-46
2022/05/01 01:00:45;;;;;;;14.18;10.32;;;;;;;6.01;100.00;101558.28;696685;28;1913;-44
2022/05/01 01:01:06;;;;;;;12.50;10.13;;;;;;;5.99;100.00;101546.97;697709;28;4541;-43
2022/05/01 01:01:26;;;;;;;13.18;10.15;;;;;;;6.05;100.00;101552.34;697255;28;1269;-44
2022/05/01 01:01:52;;;;;;;13.35;9.90;;;;;;;6.10;100.00;101556.81;698845;28;1247;-44
2022/05/01 01:02:12;;;;;;;12.13;9.45;;;;;;;6.25;98.75;101555.50;698610;28;1145;-43
2022/05/01 01:02:33;;;;;;;13.15;10.10;;;;;;;6.27;100.00;101549.50;699134;28;971;-43
2022/05/01 01:02:54;;;;;;;14.37;10.50;;;;;;;6.22;100.00;101555.41;698311;28;1164;-43
2022/05/01 01:03:14;;;;;;;12.57;10.20;;;;;;;6.16;99.99;101555.22;696701;28;1494;-45
2022/05/01 01:03:34;;;;;;;12.48;10.18;;;;;;;6.13;99.97;101554.34;699709;28;1209;-45
2022/05/01 01:03:55;;;;;;;13.17;10.10;;;;;;;6.11;100.00;101556.00;699410;28;1120;-45
2022/05/01 01:04:16;;;;;;;12.38;10.02;;;;;;;6.09;100.00;101552.47;698123;28;4522;-44
2022/05/01 01:04:36;;;;;;;13.02;10.10;;;;;;;6.04;100.00;101559.25;698935;28;1066;-44
2022/05/01 01:04:57;;;;;;;13.03;10.63;;;;;;;5.99;100.00;101553.03;699662;28;1070;-44
2022/05/01 01:05:18;;;;;;;12.70;10.38;;;;;;;5.97;100.00;101555.59;698873;28;1275;-43
2022/05/01 01:05:38;;;;;;;12.45;10.30;;;;;;;6.03;100.00;101551.44;698994;28;1189;-44
2022/05/01 01:05:58;;;;;;;12.57;10.20;;;;;;;6.11;100.00;101556.00;700145;28;1366;-43
2022/05/01 01:06:19;;;;;;;13.07;10.47;;;;;;;6.17;100.00;101554.41;698257;28;1280;-44
2022/05/01 01:06:41;;;;;;;14.35;10.60;;;;;;;6.16;100.00;101555.22;699604;28;1191;-43
2022/05/01 01:07:03;;;;;;;12.23;10.13;;;;;;;6.10;100.00;101555.94;696762;28;4347;-43
2022/05/01 01:07:26;;;;;;;13.40;10.35;;;;;;;5.99;100.00;101553.03;696251;28;1113;-44
2022/05/01 01:07:47;;;;;;;13.10;10.13;;;;;;;6.00;99.94;101552.22;696674;28;1055;-43
2022/05/01 01:08:07;;;;;;;13.33;10.00;;;;;;;5.97;100.00;101553.00;694562;28;1353;-44
2022/05/01 01:08:28;;;;;;;13.45;10.23;;;;;;;6.00;99.82;101559.13;693985;28;1070;-45
2022/05/01 01:08:49;;;;;;;12.80;10.15;;;;;;;5.99;100.00;101553.03;695442;28;1078;-45
2022/05/01 01:09:10;;;;;;;13.07;10.20;;;;;;;6.01;100.00;101555.69;697533;28;1244;-44
2022/05/01 01:09:31;;;;;;;14.35;10.38;;;;;;;5.95;100.00;101551.16;693628;28;1155;-46
2022/05/01 01:09:52;;;;;;;14.13;10.25;;;;;;;5.86;100.00;101559.56;694594;28;1103;-44
2022/05/01 01:10:12;;;;;;;12.65;9.85;;;;;;;5.76;100.00;101555.84;696805;28;4498;-44
2022/05/01 01:10:33;;;;;;;12.57;9.80;;;;;;;5.71;100.00;101559.13;697046;28;1086;-43
2022/05/01 01:10:53;;;;;;;12.98;9.90;;;;;;;5.76;100.00;101557.53;699863;28;1187;-43
2022/05/01 01:11:13;;;;;;;13.17;10.00;;;;;;;5.84;100.00;101558.63;699857;28;1243;-43
2022/05/01 01:11:35;;;;;;;13.37;9.73;;;;;;;5.95;99.86;101554.66;699448;28;1145;-45
2022/05/01 01:13:14;;;;;;;12.20;9.63;;;;;;;6.08;98.88;101553.31;698644;28;4517;-45
2022/05/01 01:13:34;;;;;;;12.17;10.23;;;;;;;6.00;99.53;101557.41;700093;28;1283;-44
2022/05/01 01:13:55;;;;;;;12.07;10.27;;;;;;;5.98;99.83;101559.06;698774;28;1368;-43
2022/05/01 01:14:22;;;;;;;13.10;10.30;;;;;;;5.99;100.00;101553.03;700796;28;1128;-43
2022/05/01 01:14:43;;;;;;;12.02;10.02;;;;;;;5.99;100.00;101558.22;698263;28;1257;-43
2022/05/01 01:15:09;;;;;;;13.20;10.27;;;;;;;5.98;100.00;101559.06;698967;28;775;-44
2022/05/01 01:15:30;;;;;;;13.63;10.40;;;;;;;5.92;100.00;101551.94;698854;28;1085;-44
2022/05/01 01:15:50;;;;;;;12.93;10.13;;;;;;;5.91;100.00;101554.50;699470;28;1100;-44
2022/05/01 01:16:11;;;;;;;12.87;9.43;;;;;;;5.92;99.84;101551.09;698412;27;4349;-46
2022/05/01 01:16:36;;;;;;;13.68;9.77;;;;;;;5.91;99.29;101554.50;699156;28;989;-44
2022/05/01 01:16:57;;;;;;;12.50;9.70;;;;;;;5.97;99.44;101557.28;699270;28;1209;-44
2022/05/01 01:17:18;;;;;;;13.77;9.88;;;;;;;5.95;99.75;101556.34;699267;28;1291;-45
2022/05/01 01:17:43;;;;;;;13.33;10.17;;;;;;;5.94;99.71;101554.59;700667;28;1260;-43
2022/05/01 01:18:04;;;;;;;13.23;9.98;;;;;;;5.97;99.77;101550.41;700023;28;1258;-44
2022/05/01 01:18:25;;;;;;;13.98;10.23;;;;;;;5.91;100.00;101552.81;699001;28;1596;-43
2022/05/01 01:18:47;;;;;;;12.43;9.90;;;;;;;5.88;100.00;101559.63;697213;28;1256;-44
2022/05/01 01:19:08;;;;;;;12.85;9.98;;;;;;;5.88;100.00;101555.28;698258;28;4464;-44
2022/05/01 01:19:29;;;;;;;12.80;9.88;;;;;;;5.86;100.00;101550.94;699918;28;903;-44
2022/05/01 01:19:49;;;;;;;13.70;10.03;;;;;;;5.86;100.00;101556.97;699543;28;1006;-44
2022/05/01 01:20:19;;;;;;;12.70;10.30;;;;;;;5.85;100.00;101554.34;698815;28;1150;-44
2022/05/01 01:20:41;;;;;;;14.07;10.48;;;;;;;5.90;100.00;101553.63;697906;28;1122;-46
2022/05/01 01:21:03;;;;;;;13.80;10.50;;;;;;;5.85;100.00;101559.53;700093;28;1949;-44
2022/05/01 01:21:24;;;;;;;12.40;10.00;;;;;;;5.79;100.00;101561.09;697033;28;1404;-43
2022/05/01 01:21:51;;;;;;;13.10;10.15;;;;;;;5.73;100.00;101557.44;697803;28;1267;-44
2022/05/01 01:22:12;;;;;;;14.07;10.13;;;;;;;5.73;100.00;101558.34;697447;27;4263;-43
2022/05/01 01:22:36;;;;;;;12.02;9.30;;;;;;;5.74;100.00;101554.91;697786;28;1108;-43
2022/05/01 01:22:58;;;;;;;12.45;9.40;;;;;;;5.72;100.00;101561.78;699684;28;1073;-44
2022/05/01 01:23:20;;;;;;;12.02;9.35;;;;;;;5.73;100.00;101554.84;698262;28;1138;-44
2022/05/01 01:23:42;;;;;;;12.75;9.63;;;;;;;5.71;99.98;101560.00;699647;28;1189;-43
2022/05/01 01:24:05;;;;;;;12.77;9.90;;;;;;;5.72;99.93;101559.16;699437;28;1372;-43
2022/05/01 01:24:27;;;;;;;13.13;9.93;;;;;;;5.75;100.00;101548.88;700701;28;1109;-45
2022/05/01 01:24:48;;;;;;;13.13;9.55;;;;;;;5.77;100.00;101562.78;700484;28;1184;-46
2022/05/01 01:25:10;;;;;;;14.43;9.63;;;;;;;5.72;100.00;101553.09;699213;27;4807;-44
2022/05/01 01:25:32;;;;;;;12.75;9.93;;;;;;;5.71;100.00;101554.81;699376;28;1245;-44
2022/05/01 01:25:52;;;;;;;12.25;9.77;;;;;;;5.65;100.00;101552.06;700087;28;1069;-46
2022/05/01 01:26:13;;;;;;;12.23;10.03;;;;;;;5.57;100.00;101558.72;696919;28;1058;-45
2022/05/01 01:26:34;;;;;;;13.05;10.18;;;;;;;5.50;100.00;101559.34;698718;28;1047;-44
2022/05/01 01:26:56;;;;;;;13.63;9.93;;;;;;;5.41;100.00;101560.84;698763;28;1097;-43
2022/05/01 01:27:17;;;;;;;12.50;9.90;;;;;;;5.41;100.00;101554.75;699788;28;1280;-43
2022/05/01 01:27:38;;;;;;;12.30;9.93;;;;;;;5.44;100.00;101553.16;698760;28;1279;-43
2022/05/01 01:28:05;;;;;;;12.50;9.63;;;;;;;5.51;100.00;101553.34;699547;27;4574;-44
2022/05/01 01:28:27;;;;;;;13.05;9.88;;;;;;;5.49;100.00;101555.88;699446;28;1506;-43
2022/05/01 01:28:48;;;;;;;12.27;9.93;;;;;;;5.55;100.00;101550.91;699522;28;1106;-45
2022/05/01 01:31:46;;;;;;;13.38;10.07;;;;;;;5.60;100.00;101553.63;696097;28;1091;-43
2022/05/01 01:32:08;;;;;;;12.70;10.37;;;;;;;5.56;100.00;101562.13;696060;28;1126;-45
2022/05/01 01:32:29;;;;;;;12.52;10.30;;;;;;;5.52;100.00;101561.16;696141;28;1162;-43
2022/05/01 01:32:50;;;;;;;13.32;10.13;;;;;;;5.53;100.00;101559.47;697697;28;1137;-43
2022/05/01 01:33:11;;;;;;;13.30;10.27;;;;;;;5.53;100.00;101556.88;701187;28;1136;-43
2022/05/01 01:33:31;;;;;;;13.23;10.07;;;;;;;5.61;100.00;101557.97;700562;28;1070;-43
2022/05/01 01:34:05;;;;;;;13.20;9.82;;;;;;;5.63;100.00;101553.69;700426;28;1239;-44
2022/05/01 01:34:31;;;;;;;12.10;9.63;;;;;;;5.61;100.00;101560.56;696853;28;4922;-44
2022/05/01 01:34:54;;;;;;;12.07;9.70;;;;;;;5.62;100.00;101562.31;698167;28;1126;-44
2022/05/01 01:35:15;;;;;;;11.85;9.52;;;;;;;5.66;100.00;101556.38;699153;28;1384;-43
2022/05/01 01:35:38;;;;;;;12.57;9.77;;;;;;;5.68;100.00;101556.47;699260;28;1282;-44
2022/05/01 01:36:02;;;;;;;13.52;10.23;;;;;;;5.66;99.78;101553.78;697766;28;1300;-43
2022/05/01 01:36:26;;;;;;;13.40;9.85;;;;;;;5.66;99.81;101558.97;700015;28;1229;-44
2022/05/01 01:36:47;;;;;;;12.35;9.80;;;;;;;5.58;100.00;101563.06;700003;28;1181;-43
2022/05/01 01:37:11;;;;;;;13.40;10.40;;;;;;;5.52;100.00;101555.97;698613;27;4430;-44
2022/05/01 01:37:34;;;;;;;13.50;10.02;;;;;;;5.49;100.00;101558.47;698376;28;1284;-43
2022/05/01 01:37:55;;;;;;;13.27;10.63;;;;;;;5.45;100.00;101554.94;695710;28;1066;-43
2022/05/01 01:38:17;;;;;;;14.75;11.00;;;;;;;5.42;100.00;101554.81;695546;28;1299;-44
2022/05/01 01:38:39;;;;;;;15.55;10.60;;;;;;;5.44;100.00;101555.75;697044;28;1102;-43
2022/05/01 01:39:00;;;;;;;13.43;9.98;;;;;;;5.42;100.00;101554.81;695781;28;4539;-43
2022/05/01 01:39:23;;;;;;;14.47;10.27;;;;;;;5.38;100.00;101560.72;696971;28;1410;-43
2022/05/01 01:39:44;;;;;;;14.27;10.55;;;;;;;5.36;100.00;101561.50;700184;28;1384;-46
2022/05/01 01:40:06;;;;;;;14.77;10.38;;;;;;;5.37;100.00;101558.09;695912;28;4392;-44
2022/05/01 01:40:30;;;;;;;14.15;9.98;;;;;;;5.41;100.00;101566.03;696803;28;1126;-43
2022/05/01 01:40:55;;;;;;;13.00;9.80;;;;;;;5.47;100.00;101552.38;695195;28;1996;-44
2022/05/01 01:41:22;;;;;;;13.80;10.07;;;;;;;5.42;100.00;101562.59;696538;28;1098;-43
2022/05/01 01:41:45;;;;;;;13.98;10.23;;;;;;;5.37;100.00;101563.28;698682;28;1411;-44
2022/05/01 01:42:07;;;;;;;14.25;10.05;;;;;;;5.33;100.00;101564.03;697099;28;1527;-43
2022/05/01 01:42:30;;;;;;;13.05;10.30;;;;;;;5.27;100.00;101562.13;693769;28;1153;-45
2022/05/01 01:42:54;;;;;;;13.65;10.45;;;;;;;5.26;100.00;101571.63;694813;28;1366;-44
2022/05/01 01:43:22;;;;;;;13.20;10.02;;;;;;;5.29;100.00;101561.34;693809;28;4277;-43
2022/05/01 01:43:44;;;;;;;13.13;10.38;;;;;;;5.37;100.00;101561.59;694674;28;1221;-43
2022/05/01 01:44:04;;;;;;;12.35;9.85;;;;;;;5.45;100.00;101557.53;699234;28;1237;-43
2022/05/01 01:44:29;;;;;;;12.23;9.82;;;;;;;5.51;100.00;101561.13;698495;28;1141;-43
2022/05/01 01:44:51;;;;;;;12.48;9.82;;;;;;;5.51;100.00;101563.72;698758;28;1009;-43
2022/05/01 01:45:13;;;;;;;13.45;10.23;;;;;;;5.53;100.00;101559.47;698434;28;1062;-45
2022/05/01 01:45:33;;;;;;;12.55;9.48;;;;;;;5.53;100.00;101556.88;696461;28;3069;-44
2022/05/01 01:45:57;;;;;;;11.57;9.50;;;;;;;5.56;100.00;101563.00;695060;28;1070;-45
2022/05/01 01:46:17;;;;;;;12.15;9.70;;;;;;;5.57;100.00;101561.31;692336;28;4857;-44
2022/05/01 01:46:39;;;;;;;12.90;9.97;;;;;;;5.53;100.00;101562.06;693230;28;1308;-45
2022/05/01 01:46:59;;;;;;;12.32;9.63;;;;;;;5.49;100.00;101561.06;692558;28;1217;-44
2022/05/01 01:47:19;;;;;;;11.60;9.33;;;;;;;5.41;100.00;101568.63;696138;28;1086;-45
2022/05/01 01:47:40;;;;;;;13.27;9.93;;;;;;;5.36;100.00;101567.59;699304;28;1062;-44
2022/05/01 01:48:09;;;;;;;12.57;9.70;;;;;;;5.39;100.00;101565.09;699164;28;1229;-43
2022/05/01 01:48:30;;;;;;;11.55;9.30;;;;;;;5.39;100.00;101565.09;698979;28;1051;-43
2022/05/01 01:48:51;;;;;;;12.73;9.60;;;;;;;5.44;100.00;101566.13;698993;28;1117;-45
2022/05/01 01:49:11;;;;;;;12.43;9.57;;;;;;;5.48;100.00;101568.81;698889;27;4830;-44